^^
Station Historical Data
Daily Summary for February 6, 2017 Units:  Metric    English   Both
« Previous Day
Next Day »
Daily Weekly Monthly Yearly Custom
  High: Low: Average:
Temperature: -17.8 °C -24.8 °C -21.9 °C
Dew Point: -17.8 °C -25.5 °C -22.9 °C
Humidity: Humidity% 80% 87%
Wind Speed: 0km/h 0km/h 7.2km/h
Wind Gust: 0km/h - -
Wind- - ENE
Pressure: 0 hPa 34808.1 hPa -
Precipitation: 0 mm    
Historical Graphs
 
 
Tabular Data for February 6, 2017
Time Temperature Dew Point Pressure Wind Wind Speed Wind Gust Humidity Rainfall Rate (Hourly) solar Conditions
-17.8 °C -17.8 °C 0 hPa Calm     Humidity% 0 mm SoftwareType W/m2 Conditions
00:01 -20.7 °C -21.4 °C 34808.1 hPa NE 5 km/h 15 km/h 91% 0 mm WeatherDisplay:10.37 W/m2 RA
00:06 -20.7 °C -21.4 °C 34808.1 hPa ENE 2.6 km/h 12.9 km/h 91% 0 mm WeatherDisplay:10.37 W/m2 RA
00:11 -20.7 °C -21.4 °C 34808.1 hPa East 7.7 km/h 12.9 km/h 91% 0 mm WeatherDisplay:10.37 W/m2 FEW
00:16 -20.7 °C -21.4 °C 34808.1 hPa NE 12.4 km/h 26.9 km/h 91% 0 mm WeatherDisplay:10.37 W/m2 FEW
00:21 -20.7 °C -21.4 °C 34818.2 hPa NE 8 km/h 9 km/h 91% 0 mm WeatherDisplay:10.37 W/m2 FEW
00:26 -20.7 °C -21.4 °C 34818.2 hPa ENE 10.3 km/h 17.9 km/h 91% 0 mm WeatherDisplay:10.37 W/m2 FEW
00:31 -20.7 °C -21.4 °C 34818.2 hPa NE 12.4 km/h 23.8 km/h 91% 0 mm WeatherDisplay:10.37 W/m2 FEW
00:36 -20.7 °C -21.4 °C 34831.8 hPa NE 8.2 km/h 11.9 km/h 91% 0 mm WeatherDisplay:10.37 W/m2 FEW
00:41 -20.7 °C -21.4 °C 34831.8 hPa ENE 2.9 km/h 7.7 km/h 91% 0 mm WeatherDisplay:10.37 W/m2 FEW
00:46 -20.7 °C -21.4 °C 34831.8 hPa ENE 2.9 km/h 9 km/h 91% 0 mm WeatherDisplay:10.37 W/m2 FEW
00:51 -20.7 °C -21.4 °C 34831.8 hPa NE 8.2 km/h 10.3 km/h 91% 0 mm WeatherDisplay:10.37 W/m2 FEW
00:56 -20.7 °C -21.4 °C 34841.9 hPa NE 5.5 km/h 17.9 km/h 91% 0 mm WeatherDisplay:10.37 W/m2 FEW
01:01 -20.7 °C -21.4 °C 34831.8 hPa East 6 km/h 11.9 km/h 91% 0 mm WeatherDisplay:10.37 W/m2 FEW
01:06 -20.7 °C -21.4 °C 34841.9 hPa NE 4.3 km/h 9 km/h 91% 0 mm WeatherDisplay:10.37 W/m2 FEW
01:11 -20.7 °C -21.4 °C 34841.9 hPa NE 14.8 km/h 23.8 km/h 91% 0 mm WeatherDisplay:10.37 W/m2 FEW
01:16 -20.8 °C -21.4 °C 34841.9 hPa ENE 10.1 km/h 11.9 km/h 91% 0 mm WeatherDisplay:10.37 W/m2 FEW
01:21 -20.8 °C -21.4 °C 34841.9 hPa NE 6.8 km/h 10.3 km/h 91% 0 mm WeatherDisplay:10.37 W/m2 FEW
01:26 -20.8 °C -21.4 °C 34841.9 hPa East 12.7 km/h 17.9 km/h 91% 0 mm WeatherDisplay:10.37 W/m2 FEW
01:31 -20.8 °C -21.5 °C 34852.1 hPa ENE 2.6 km/h 9 km/h 91% 0 mm WeatherDisplay:10.37 W/m2 FEW
01:36 -20.8 °C -21.4 °C 34852.1 hPa NE 9.3 km/h 17.9 km/h 91% 0 mm WeatherDisplay:10.37 W/m2 FEW
01:41 -20.8 °C -21.5 °C 34852.1 hPa ENE 6.3 km/h 9 km/h 91% 0 mm WeatherDisplay:10.37 W/m2 FEW
01:46 -20.8 °C -21.5 °C 34852.1 hPa NNE 1.3 km/h 7.7 km/h 91% 0 mm WeatherDisplay:10.37 W/m2 FEW
01:51 -20.8 °C -21.6 °C 34852.1 hPa NE 2.6 km/h 11.9 km/h 90% 0 mm WeatherDisplay:10.37 W/m2 FEW
01:56 -20.8 °C -21.6 °C 34852.1 hPa NE 8 km/h 9 km/h 90% 0 mm WeatherDisplay:10.37 W/m2 FEW
02:01 -20.8 °C -21.6 °C 34865.6 hPa ENE 1.6 km/h 11.9 km/h 90% 0 mm WeatherDisplay:10.37 W/m2 FEW
02:02 -20.8 °C -21.6 °C 34865.6 hPa NE 6 km/h 9 km/h 90% 0 mm WeatherDisplay:10.37 W/m2 FEW
02:07 -20.9 °C -21.6 °C 34865.6 hPa ENE 9 km/h 17.9 km/h 90% 0 mm WeatherDisplay:10.37 W/m2 FEW
02:12 -20.9 °C -21.7 °C 34865.6 hPa ENE 18.3 km/h 35.7 km/h 90% 0 mm WeatherDisplay:10.37 W/m2 FEW
02:17 -20.9 °C -21.7 °C 34865.6 hPa North 7.2 km/h 10.3 km/h 90% 0 mm WeatherDisplay:10.37 W/m2 FEW
02:22 -20.9 °C -21.7 °C 34865.6 hPa NNE 4.3 km/h 7.7 km/h 90% 0 mm WeatherDisplay:10.37 W/m2 FEW
02:27 -20.9 °C -21.7 °C 34865.6 hPa NE 7.6 km/h 9 km/h 90% 0 mm WeatherDisplay:10.37 W/m2 FEW
02:32 -20.9 °C -21.7 °C 34865.6 hPa NE 8.2 km/h 11.9 km/h 90% 0 mm WeatherDisplay:10.37 W/m2 FEW
02:37 -20.9 °C -21.7 °C 34865.6 hPa NE 5.1 km/h 15 km/h 90% 0 mm WeatherDisplay:10.37 W/m2 FEW
02:42 -20.9 °C -21.7 °C 34865.6 hPa ENE 5.5 km/h 11.9 km/h 90% 0 mm WeatherDisplay:10.37 W/m2 FEW
02:47 -20.9 °C -21.7 °C 34865.6 hPa ENE 6 km/h 15 km/h 90% 0 mm WeatherDisplay:10.37 W/m2 FEW
02:52 -20.9 °C -21.7 °C 34865.6 hPa NE 8 km/h 11.9 km/h 90% 0 mm WeatherDisplay:10.37 W/m2 FEW
02:57 -20.9 °C -21.7 °C 34865.6 hPa Calm     90% 0 mm WeatherDisplay:10.37 W/m2 FEW
03:02 -20.9 °C -21.6 °C 34875.8 hPa ENE 8 km/h 10.3 km/h 91% 0 mm WeatherDisplay:10.37 W/m2 FEW
03:07 -20.9 °C -21.6 °C 34875.8 hPa ENE 4.7 km/h 9 km/h 91% 0 mm WeatherDisplay:10.37 W/m2 FEW
03:12 -20.9 °C -21.6 °C 34875.8 hPa ENE 0.5 km/h 3.1 km/h 91% 0 mm WeatherDisplay:10.37 W/m2 FEW
03:17 -20.9 °C -21.7 °C 34875.8 hPa NE 5 km/h 9 km/h 90% 0 mm WeatherDisplay:10.37 W/m2 FEW
03:22 -20.9 °C -21.7 °C 34875.8 hPa Calm   6 km/h 90% 0 mm WeatherDisplay:10.37 W/m2 FEW
03:27 -20.9 °C -21.6 °C 34875.8 hPa ENE 3.4 km/h 9 km/h 91% 0 mm WeatherDisplay:10.37 W/m2 FEW
03:32 -20.9 °C -21.6 °C 34875.8 hPa NE 1 km/h 9 km/h 91% 0 mm WeatherDisplay:10.37 W/m2 FEW
03:37 -20.9 °C -21.6 °C 34889.3 hPa NE 11.9 km/h 12.9 km/h 91% 0 mm WeatherDisplay:10.37 W/m2 FEW
03:42 -20.9 °C -21.6 °C 34889.3 hPa NE 8.2 km/h 17.9 km/h 91% 0 mm WeatherDisplay:10.37 W/m2 FEW
03:47 -20.9 °C -21.6 °C 34889.3 hPa NE 2.6 km/h 9 km/h 91% 0 mm WeatherDisplay:10.37 W/m2 FEW
03:52 -20.9 °C -21.6 °C 34889.3 hPa ENE 1.3 km/h 11.9 km/h 91% 0 mm WeatherDisplay:10.37 W/m2 FEW
03:57 -20.9 °C -21.6 °C 34889.3 hPa ENE 6.4 km/h 9 km/h 91% 0 mm WeatherDisplay:10.37 W/m2 FEW
04:02 -20.8 °C -21.5 °C 34889.3 hPa ENE 4.3 km/h 9 km/h 91% 0 mm WeatherDisplay:10.37 W/m2 FEW
04:07 -20.8 °C -21.5 °C 34889.3 hPa ENE 5.5 km/h 15 km/h 91% 0 mm WeatherDisplay:10.37 W/m2 FEW
04:12 -20.8 °C -21.5 °C 34889.3 hPa NE 11.6 km/h 26.9 km/h 91% 0 mm WeatherDisplay:10.37 W/m2 FEW
04:17 -20.8 °C -21.6 °C 34899.5 hPa ENE 7.7 km/h 9 km/h 90% 0 mm WeatherDisplay:10.37 W/m2 FEW
04:22 -20.8 °C -21.6 °C 34899.5 hPa NE 8.9 km/h 20.8 km/h 90% 0 mm WeatherDisplay:10.37 W/m2 FEW
04:27 -20.8 °C -21.6 °C 34899.5 hPa NE 7.2 km/h 15.6 km/h 90% 0 mm WeatherDisplay:10.37 W/m2 FEW
04:32 -20.8 °C -21.6 °C 34899.5 hPa ENE 8.2 km/h 11.9 km/h 90% 0 mm WeatherDisplay:10.37 W/m2 FEW
04:37 -20.8 °C -21.6 °C 34899.5 hPa ENE 11.6 km/h 25.9 km/h 90% 0 mm WeatherDisplay:10.37 W/m2 FEW
04:42 -20.8 °C -21.6 °C 34899.5 hPa ENE 11.9 km/h 20.9 km/h 90% 0 mm WeatherDisplay:10.37 W/m2 FEW
04:47 -20.8 °C -21.6 °C 34909.7 hPa NNE 1.3 km/h 9 km/h 90% 0 mm WeatherDisplay:10.37 W/m2 FEW
04:52 -20.8 °C -21.6 °C 34909.7 hPa NE 8.2 km/h 9 km/h 90% 0 mm WeatherDisplay:10.37 W/m2 FEW
04:57 -20.8 °C -21.6 °C 34909.7 hPa ENE 11.4 km/h 23.8 km/h 90% 0 mm WeatherDisplay:10.37 W/m2 FEW
05:02 -20.8 °C -21.6 °C 34909.7 hPa ENE 5.1 km/h 11.9 km/h 90% 0 mm WeatherDisplay:10.37 W/m2 FEW
05:07 -20.8 °C -21.6 °C 34923.2 hPa NE 13.7 km/h 23.8 km/h 90% 0 mm WeatherDisplay:10.37 W/m2 FEW
05:12 -20.8 °C -21.6 °C 34923.2 hPa NE 8.9 km/h 11.9 km/h 90% 0 mm WeatherDisplay:10.37 W/m2 FEW
05:17 -20.8 °C -21.6 °C 34923.2 hPa ENE 2.3 km/h 9 km/h 90% 0 mm WeatherDisplay:10.37 W/m2 FEW
05:22 -20.8 °C -21.6 °C 34923.2 hPa NE 6.9 km/h 9 km/h 90% 0 mm WeatherDisplay:10.37 W/m2 FEW
05:27 -20.8 °C -21.6 °C 34933.4 hPa ENE 8.5 km/h 15 km/h 90% 0 mm WeatherDisplay:10.37 W/m2 FEW
05:32 -20.8 °C -21.6 °C 34933.4 hPa ENE 2.9 km/h 11.9 km/h 90% 0 mm WeatherDisplay:10.37 W/m2 FEW
05:33 -20.8 °C -21.6 °C 34933.4 hPa East 4.7 km/h 12.9 km/h 90% 0 mm WeatherDisplay:10.37 W/m2 FEW
05:38 -20.9 °C -21.6 °C 34933.4 hPa NE 11.1 km/h 15 km/h 90% 0 mm WeatherDisplay:10.37 W/m2 FEW
05:43 -20.9 °C -21.6 °C 34933.4 hPa East 4.3 km/h 11.9 km/h 91% 0 mm WeatherDisplay:10.37 W/m2 FEW
05:48 -20.9 °C -21.6 °C 34933.4 hPa ENE 9 km/h 11.9 km/h 91% 0 mm WeatherDisplay:10.37 W/m2 FEW
05:53 -20.9 °C -21.7 °C 34933.4 hPa NE 9.3 km/h 17.9 km/h 90% 0 mm WeatherDisplay:10.37 W/m2 FEW
05:58 -20.9 °C -21.7 °C 34946.9 hPa ENE 10.9 km/h 23.3 km/h 90% 0 mm WeatherDisplay:10.37 W/m2 FEW
06:03 -20.9 °C -21.6 °C 34946.9 hPa NE 2.3 km/h 10.3 km/h 91% 0 mm WeatherDisplay:10.37 W/m2 FEW
06:08 -20.9 °C -21.7 °C 34946.9 hPa SE 7.6 km/h 23.8 km/h 90% 0 mm WeatherDisplay:10.37 W/m2 FEW
06:13 -20.9 °C -21.6 °C 34946.9 hPa NE 3.9 km/h 11.9 km/h 91% 0 mm WeatherDisplay:10.37 W/m2 FEW
06:18 -20.9 °C -21.6 °C 34946.9 hPa NE 5.1 km/h 9 km/h 91% 0 mm WeatherDisplay:10.37 W/m2 FEW
06:23 -20.9 °C -21.7 °C 34946.9 hPa NE 4.3 km/h 9 km/h 90% 0 mm WeatherDisplay:10.37 W/m2 FEW
06:28 -20.9 °C -21.7 °C 34957.1 hPa ESE 9 km/h 17.9 km/h 90% 0 mm WeatherDisplay:10.37 W/m2 FEW
06:33 -21 °C -21.8 °C 34957.1 hPa East 5.1 km/h 23.8 km/h 90% 0 mm WeatherDisplay:10.37 W/m2 FEW
06:38 -20.9 °C -21.7 °C 34957.1 hPa NE 6.9 km/h 18.2 km/h 90% 0 mm WeatherDisplay:10.37 W/m2 FEW
06:43 -20.9 °C -21.8 °C 34957.1 hPa ENE 11.9 km/h 23.8 km/h 89% 0 mm WeatherDisplay:10.37 W/m2 FEW
06:48 -20.9 °C -21.8 °C 34967.2 hPa ENE 5 km/h 10.3 km/h 89% 0 mm WeatherDisplay:10.37 W/m2 FEW
06:53 -20.9 °C -21.8 °C 34967.2 hPa ENE 6.3 km/h 9 km/h 89% 0 mm WeatherDisplay:10.37 W/m2 FEW
06:58 -20.9 °C -21.8 °C 34967.2 hPa NE 12.4 km/h 12.4 km/h 89% 0 mm WeatherDisplay:10.37 W/m2 FEW
07:03 -20.9 °C -21.8 °C 34967.2 hPa NE 9.8 km/h 17.9 km/h 89% 0 mm WeatherDisplay:10.37 W/m2 FEW
07:08 -21 °C -21.8 °C 34980.8 hPa NE 7.7 km/h 11.9 km/h 90% 0 mm WeatherDisplay:10.37 W/m2 FEW
07:13 -21 °C -21.8 °C 34980.8 hPa ENE 6 km/h 9 km/h 90% 0 mm WeatherDisplay:10.37 W/m2 FEW
07:18 -21 °C -21.8 °C 34980.8 hPa ENE 10.6 km/h 17.9 km/h 90% 0 mm WeatherDisplay:10.37 W/m2 FEW
07:23 -21 °C -21.8 °C 34980.8 hPa NE 4.3 km/h 9 km/h 90% 0 mm WeatherDisplay:10.37 W/m2 FEW
07:28 -21.1 °C -21.8 °C 34980.8 hPa NE 9 km/h 17.9 km/h 90% 0 mm WeatherDisplay:10.37 W/m2 FEW
07:33 -21.1 °C -21.8 °C 34990.9 hPa NE 10.1 km/h 20.9 km/h 90% 0 mm WeatherDisplay:10.37 W/m2 FEW
07:38 -21.1 °C -21.8 °C 34990.9 hPa NE 6.3 km/h 23.8 km/h 90% 0 mm WeatherDisplay:10.37 W/m2 FEW
07:43 -21.1 °C -21.9 °C 34990.9 hPa NE 5.5 km/h 9 km/h 90% 0 mm WeatherDisplay:10.37 W/m2 FEW
07:48 -21.1 °C -21.9 °C 34990.9 hPa NE 6.9 km/h 9 km/h 90% 0 mm WeatherDisplay:10.37 W/m2 FEW
07:53 -21.2 °C -21.9 °C 35001.1 hPa NE 11.9 km/h 17.9 km/h 90% 0 mm WeatherDisplay:10.37 W/m2 FEW
07:58 -21.2 °C -22 °C 35001.1 hPa NE 8.2 km/h 15.6 km/h 89% 0 mm WeatherDisplay:10.37 W/m2 FEW
08:03 -21.2 °C -22.1 °C 35001.1 hPa NE 13.2 km/h 17.9 km/h 89% 0 mm WeatherDisplay:10.37 W/m2 FEW
08:08 -21.3 °C -22.1 °C 35001.1 hPa ENE 9.8 km/h 20.9 km/h 89% 0 mm WeatherDisplay:10.37 W/m2 FEW
08:13 -21.3 °C -22.1 °C 35001.1 hPa NE 11.9 km/h 23.8 km/h 89% 0 mm WeatherDisplay:10.37 W/m2 FEW
08:18 -21.3 °C -22.1 °C 35001.1 hPa East 3.1 km/h 7.7 km/h 89% 0 mm WeatherDisplay:10.37 W/m2 FEW
08:23 -21.3 °C -22.2 °C 35014.6 hPa ENE 11.1 km/h 23.8 km/h 89% 0 mm WeatherDisplay:10.37 W/m2 FEW
08:28 -21.3 °C -22.3 °C 35014.6 hPa NE 9.7 km/h 18.2 km/h 88% 0 mm WeatherDisplay:10.37 W/m2 FEW
08:33 -21.3 °C -22.3 °C 35024.8 hPa NE 6.3 km/h 15 km/h 88% 0 mm WeatherDisplay:10.37 W/m2 FEW
08:38 -21.3 °C -22.3 °C 35024.8 hPa NE 8.2 km/h 11.9 km/h 88% 0 mm WeatherDisplay:10.37 W/m2 FEW
08:43 -21.3 °C -22.3 °C 35024.8 hPa NE 7.2 km/h 10.3 km/h 88% 0 mm WeatherDisplay:10.37 W/m2 FEW
08:48 -21.4 °C -22.4 °C 35024.8 hPa ESE 0.8 km/h 17.9 km/h 87% 0 mm WeatherDisplay:10.37 W/m2 FEW
08:53 -21.3 °C -22.4 °C 35024.8 hPa NE 6 km/h 11.9 km/h 87% 0 mm WeatherDisplay:10.37 W/m2 FEW
08:58 -21.3 °C -22.4 °C 35038.3 hPa ENE 7.2 km/h 20.9 km/h 87% 0 mm WeatherDisplay:10.37 W/m2 FEW
09:03 -21.3 °C -22.4 °C 35038.3 hPa ENE 11.4 km/h 17.9 km/h 87% 0 mm WeatherDisplay:10.37 W/m2 FEW
09:08 -21.3 °C -22.3 °C 35038.3 hPa NE 1.8 km/h 9 km/h 87% 0 mm WeatherDisplay:10.37 W/m2 FEW
09:13 -21.3 °C -22.3 °C 35048.5 hPa NE 9 km/h 20.9 km/h 87% 0 mm WeatherDisplay:10.37 W/m2 FEW
09:18 -21.3 °C -22.3 °C 35048.5 hPa East 10.3 km/h 18.2 km/h 87% 0 mm WeatherDisplay:10.37 W/m2 FEW
09:23 -21.3 °C -22.3 °C 35048.5 hPa East 5.1 km/h 18.2 km/h 87% 0 mm WeatherDisplay:10.37 W/m2 FEW
09:28 -21.3 °C -22.3 °C 35048.5 hPa NE 8.5 km/h 11.9 km/h 87% 0 mm WeatherDisplay:10.37 W/m2 FEW
09:33 -21.3 °C -22.3 °C 35048.5 hPa ENE 3.9 km/h 9 km/h 87% 0 mm WeatherDisplay:10.37 W/m2 FEW
09:38 -21.3 °C -22.3 °C 35048.5 hPa ENE 13.7 km/h 20.8 km/h 88% 0 mm WeatherDisplay:10.37 W/m2 FEW
09:43 -21.3 °C -22.3 °C 35058.6 hPa ENE 10.6 km/h 17.9 km/h 88% 0 mm WeatherDisplay:10.37 W/m2 FEW
09:48 -21.3 °C -22.3 °C 35058.6 hPa NE 4.2 km/h 10.3 km/h 88% 0 mm WeatherDisplay:10.37 W/m2 FEW
09:53 -21.3 °C -22.2 °C 35058.6 hPa ENE 10.9 km/h 26.9 km/h 89% 0 mm WeatherDisplay:10.37 W/m2 FEW
09:58 -21.3 °C -22.2 °C 35058.6 hPa NE 12.2 km/h 17.9 km/h 89% 0 mm WeatherDisplay:10.37 W/m2 FEW
10:00 -21.4 °C -22.2 °C 35058.6 hPa NE 10.9 km/h 29.8 km/h 89% 0 mm WeatherDisplay:10.37 W/m2 FEW
10:05 -21.3 °C -22.2 °C 35058.6 hPa NE 9.8 km/h 11.9 km/h 89% 0 mm WeatherDisplay:10.37 W/m2 FEW
10:10 -21.3 °C -22.2 °C 35072.2 hPa ENE 6.9 km/h 11.9 km/h 89% 0 mm WeatherDisplay:10.37 W/m2 FEW
10:15 -21.3 °C -22.2 °C 35072.2 hPa NE 5 km/h 9 km/h 89% 0 mm WeatherDisplay:10.37 W/m2 FEW
10:20 -21.3 °C -22.1 °C 35072.2 hPa NE 1.6 km/h 9 km/h 89% 0 mm WeatherDisplay:10.37 W/m2 FEW
10:25 -21.3 °C -22.1 °C 35072.2 hPa ENE 11.6 km/h 20.9 km/h 89% 0 mm WeatherDisplay:10.37 W/m2 FEW
10:30 -21.3 °C -22.3 °C 35072.2 hPa ENE 11.4 km/h 23.8 km/h 88% 0 mm WeatherDisplay:10.37 W/m2 FEW
10:35 -21.3 °C -22.3 °C 35082.3 hPa NNE 6 km/h 9 km/h 88% 0 mm WeatherDisplay:10.37 W/m2 FEW
10:40 -21.3 °C -22.1 °C 35082.3 hPa NNE 4.7 km/h 15 km/h 89% 0 mm WeatherDisplay:10.37 W/m2 FEW
10:45 -21.3 °C -22.1 °C 35082.3 hPa NNE 10.3 km/h 20.9 km/h 89% 0 mm WeatherDisplay:10.37 W/m2 FEW
10:50 -21.3 °C -22.2 °C 35082.3 hPa ENE 4.3 km/h 9 km/h 88% 0 mm WeatherDisplay:10.37 W/m2 FEW
10:55 -21.3 °C -22.3 °C 35082.3 hPa NE 10.3 km/h 17.9 km/h 88% 0 mm WeatherDisplay:10.37 W/m2 FEW
11:00 -21.3 °C -22.3 °C 35095.9 hPa NE 6.4 km/h 17.9 km/h 88% 0 mm WeatherDisplay:10.37 W/m2 FEW
11:05 -21.4 °C -22.3 °C 35095.9 hPa NNE 10.6 km/h 20.9 km/h 88% 0 mm WeatherDisplay:10.37 W/m2 FEW
11:10 -21.4 °C -22.4 °C 35095.9 hPa NE 14.8 km/h 26.9 km/h 88% 0 mm WeatherDisplay:10.37 W/m2 FEW
11:15 -21.5 °C -22.4 °C 35106 hPa NE 15.8 km/h 29.8 km/h 88% 0 mm WeatherDisplay:10.37 W/m2 FEW
11:20 -21.5 °C -22.4 °C 35095.9 hPa ENE 11.4 km/h 29.8 km/h 87% 0 mm WeatherDisplay:10.37 W/m2 FEW
11:25 -21.5 °C -22.4 °C 35095.9 hPa ENE 14.2 km/h 20.8 km/h 87% 0 mm WeatherDisplay:10.37 W/m2 FEW
11:30 -21.5 °C -22.6 °C 35106 hPa ESE 10.9 km/h 20.9 km/h 86% 0 mm WeatherDisplay:10.37 W/m2 FEW
11:35 -21.6 °C -22.6 °C 35106 hPa NE 14.8 km/h 35.7 km/h 86% 0 mm WeatherDisplay:10.37 W/m2 FEW
11:40 -21.6 °C -22.6 °C 35106 hPa ENE 5.1 km/h 17.9 km/h 86% 0 mm WeatherDisplay:10.37 W/m2 FEW
11:45 -21.5 °C -22.6 °C 35106 hPa ENE 3.1 km/h 9 km/h 86% 0 mm WeatherDisplay:10.37 W/m2 FEW
11:50 -21.5 °C -22.6 °C 35116.2 hPa NE 9.3 km/h 11.9 km/h 86% 0 mm WeatherDisplay:10.37 W/m2 FEW
11:55 -21.5 °C -22.6 °C 35116.2 hPa ENE 6.4 km/h 20.9 km/h 86% 0 mm WeatherDisplay:10.37 W/m2 FEW
12:00 -21.5 °C -22.7 °C 35116.2 hPa ENE 6.8 km/h 17.9 km/h 85% 0 mm WeatherDisplay:10.37 W/m2 FEW
12:05 -21.5 °C -22.7 °C 35116.2 hPa NE 24.1 km/h 44.7 km/h 85% 0 mm WeatherDisplay:10.37 W/m2 FEW
12:10 -21.6 °C -22.7 °C 35116.2 hPa ENE 1.6 km/h 15 km/h 85% 0 mm WeatherDisplay:10.37 W/m2 FEW
12:15 -21.6 °C -22.8 °C 35116.2 hPa ESE 10.9 km/h 20.9 km/h 84% 0 mm WeatherDisplay:10.37 W/m2 FEW
12:20 -21.6 °C -22.8 °C 35116.2 hPa NE 9 km/h 23.8 km/h 84% 0 mm WeatherDisplay:10.37 W/m2 FEW
12:25 -21.6 °C -22.8 °C 35116.2 hPa East 9.7 km/h 26.9 km/h 84% 0 mm WeatherDisplay:10.37 W/m2 FEW
12:30 -21.6 °C -22.8 °C 35129.8 hPa East 11.6 km/h 17.9 km/h 84% 0 mm WeatherDisplay:10.37 W/m2 FEW
12:35 -21.6 °C -22.8 °C 35129.8 hPa ENE 6.4 km/h 11.9 km/h 84% 0 mm WeatherDisplay:10.37 W/m2 FEW
12:40 -21.6 °C -22.8 °C 35129.8 hPa NE 9.3 km/h 20.9 km/h 84% 0 mm WeatherDisplay:10.37 W/m2 FEW
12:45 -21.6 °C -22.8 °C 35129.8 hPa ESE 14 km/h 18.2 km/h 84% 0 mm WeatherDisplay:10.37 W/m2 FEW
12:50 -21.6 °C -22.8 °C 35129.8 hPa ESE 20.8 km/h 32.8 km/h 84% 0 mm WeatherDisplay:10.37 W/m2 FEW
12:55 -21.6 °C -22.8 °C 35129.8 hPa ENE 12.7 km/h 29.8 km/h 84% 0 mm WeatherDisplay:10.37 W/m2 FEW
13:00 -21.6 °C -22.8 °C 35129.8 hPa NE 12.9 km/h 12.9 km/h 84% 0 mm WeatherDisplay:10.37 W/m2 FEW
13:05 -21.6 °C -22.8 °C 35129.8 hPa ESE 5.5 km/h 9 km/h 84% 0 mm WeatherDisplay:10.37 W/m2 FEW
13:10 -21.6 °C -22.8 °C 35129.8 hPa NE 10.1 km/h 28.5 km/h 84% 0 mm WeatherDisplay:10.37 W/m2 FEW
13:15 -21.6 °C -22.8 °C 35129.8 hPa NE 13.7 km/h 17.9 km/h 84% 0 mm WeatherDisplay:10.37 W/m2 FEW
13:20 -21.6 °C -22.8 °C 35129.8 hPa ESE 10.9 km/h 23.8 km/h 84% 0 mm WeatherDisplay:10.37 W/m2 FEW
13:25 -21.6 °C -22.8 °C 35129.8 hPa NNE 10.6 km/h 17.9 km/h 84% 0 mm WeatherDisplay:10.37 W/m2 FEW
13:30 -21.6 °C -22.9 °C 35139.9 hPa ENE 7.2 km/h 10.3 km/h 84% 0 mm WeatherDisplay:10.37 W/m2 FEW
13:35 -21.7 °C -22.9 °C 35139.9 hPa ENE 15 km/h 26.9 km/h 84% 0 mm WeatherDisplay:10.37 W/m2 FEW
13:40 -21.7 °C -22.9 °C 35139.9 hPa ENE 8.9 km/h 29.8 km/h 84% 0 mm WeatherDisplay:10.37 W/m2 FEW
13:45 -21.7 °C -22.9 °C 35139.9 hPa East 11.4 km/h 17.9 km/h 84% 0 mm WeatherDisplay:10.37 W/m2 FEW
13:50 -21.7 °C -22.9 °C 35139.9 hPa NE 12.2 km/h 26.9 km/h 84% 0 mm WeatherDisplay:10.37 W/m2 FEW
13:55 -21.7 °C -22.9 °C 35139.9 hPa ENE 14 km/h 26.9 km/h 84% 0 mm WeatherDisplay:10.37 W/m2 FEW
14:00 -21.7 °C -22.9 °C 35139.9 hPa NE 11.6 km/h 17.9 km/h 84% 0 mm WeatherDisplay:10.37 W/m2 FEW
14:05 -21.7 °C -22.9 °C 35139.9 hPa ENE 8.9 km/h 11.9 km/h 84% 0 mm WeatherDisplay:10.37 W/m2 FEW
14:10 -21.6 °C -22.9 °C 35139.9 hPa East 3.1 km/h 9 km/h 84% 0 mm WeatherDisplay:10.37 W/m2 FEW
14:15 -21.6 °C -22.8 °C 35139.9 hPa ENE 11.4 km/h 29.8 km/h 84% 0 mm WeatherDisplay:10.37 W/m2 FEW
14:20 -21.6 °C -22.9 °C 35139.9 hPa ENE 0.5 km/h 9 km/h 84% 0 mm WeatherDisplay:10.37 W/m2 FEW
14:25 -21.6 °C -22.8 °C 35139.9 hPa ENE 10.3 km/h 20.9 km/h 84% 0 mm WeatherDisplay:10.37 W/m2 FEW
14:30 -21.6 °C -22.9 °C 35150.1 hPa ENE 10.9 km/h 20.8 km/h 83% 0 mm WeatherDisplay:10.37 W/m2 FEW
14:35 -21.6 °C -22.9 °C 35139.9 hPa ENE 14.5 km/h 14.5 km/h 84% 0 mm WeatherDisplay:10.37 W/m2 FEW
14:40 -21.6 °C -22.9 °C 35150.1 hPa ENE 8.2 km/h 26.9 km/h 84% 0 mm WeatherDisplay:10.37 W/m2 FEW
14:45 -21.6 °C -22.9 °C 35150.1 hPa East 6.8 km/h 17.9 km/h 83% 0 mm WeatherDisplay:10.37 W/m2 FEW
14:50 -21.7 °C -22.3 °C 35150.1 hPa NE 10.3 km/h 20.9 km/h 91% 0 mm WeatherDisplay:10.37 W/m2 FEW
14:55 -21.7 °C -23 °C 35150.1 hPa East 12.7 km/h 17.9 km/h 83% 0 mm WeatherDisplay:10.37 W/m2 FEW
15:00 -21.7 °C -23 °C 35150.1 hPa ENE 6.4 km/h 11.9 km/h 83% 0 mm WeatherDisplay:10.37 W/m2 FEW
15:05 -21.7 °C -22.3 °C 35163.6 hPa ENE 9.8 km/h 26.9 km/h 91% 0 mm WeatherDisplay:10.37 W/m2 FEW
15:10 -21.7 °C -23 °C 35163.6 hPa SE 8.2 km/h 20.9 km/h 83% 0 mm WeatherDisplay:10.37 W/m2 FEW
15:15 -21.7 °C -23 °C 35163.6 hPa NE 9.8 km/h 20.9 km/h 83% 0 mm WeatherDisplay:10.37 W/m2 FEW
15:20 -21.7 °C -23 °C 35163.6 hPa East 0.5 km/h 6 km/h 83% 0 mm WeatherDisplay:10.37 W/m2 FEW
15:25 -21.7 °C -23 °C 35163.6 hPa NE 7.6 km/h 20.9 km/h 83% 0 mm WeatherDisplay:10.37 W/m2 FEW
15:30 -21.7 °C -23.1 °C 35163.6 hPa NE 12.7 km/h 23.8 km/h 83% 0 mm WeatherDisplay:10.37 W/m2 FEW
15:35 -21.7 °C -23.1 °C 35173.8 hPa ENE 9.8 km/h 20.9 km/h 83% 0 mm WeatherDisplay:10.37 W/m2 FEW
15:40 -21.8 °C -23.1 °C 35173.8 hPa ESE 11.6 km/h 23.8 km/h 83% 0 mm WeatherDisplay:10.37 W/m2 FEW
15:45 -21.8 °C -23.1 °C 35173.8 hPa ENE 5 km/h 9 km/h 83% 0 mm WeatherDisplay:10.37 W/m2 FEW
15:50 -21.8 °C -23.2 °C 35173.8 hPa Calm     83% 0 mm WeatherDisplay:10.37 W/m2 FEW
15:55 -21.8 °C -23.2 °C 35173.8 hPa East 3.4 km/h 9 km/h 83% 0 mm WeatherDisplay:10.37 W/m2 FEW
16:00 -21.9 °C -23.2 °C 35173.8 hPa East 10.6 km/h 15.6 km/h 83% 0 mm WeatherDisplay:10.37 W/m2 FEW
16:05 -21.9 °C -23.2 °C 35173.8 hPa NE 3.9 km/h 9 km/h 83% 0 mm WeatherDisplay:10.37 W/m2 FEW
16:10 -22 °C -23.3 °C 35173.8 hPa ENE 6.8 km/h 9 km/h 83% 0 mm WeatherDisplay:10.37 W/m2 FEW
16:15 -22 °C -23.2 °C 35187.3 hPa NNE 3.1 km/h 15 km/h 84% 0 mm WeatherDisplay:10.37 W/m2 FEW
16:20 -22.1 °C -23.4 °C 35187.3 hPa ENE 12.7 km/h 23.8 km/h 83% 0 mm WeatherDisplay:10.37 W/m2 FEW
16:25 -22.1 °C -23.4 °C 35187.3 hPa ENE 10.3 km/h 20.9 km/h 83% 0 mm WeatherDisplay:10.37 W/m2 FEW
16:30 -22.1 °C -23.4 °C 35187.3 hPa NE 9.3 km/h 15.6 km/h 83% 0 mm WeatherDisplay:10.37 W/m2 FEW
16:35 -22.1 °C -23.4 °C 35187.3 hPa ENE 5 km/h 11.9 km/h 84% 0 mm WeatherDisplay:10.37 W/m2 FEW
16:40 -22.2 °C -23.4 °C 35187.3 hPa ENE 5.1 km/h 9 km/h 84% 0 mm WeatherDisplay:10.37 W/m2 FEW
16:45 -22.3 °C -23.5 °C 35187.3 hPa ENE 3.4 km/h 9 km/h 84% 0 mm WeatherDisplay:10.37 W/m2 FEW
16:50 -22.3 °C -23.6 °C 35187.3 hPa NE 3.4 km/h 7.7 km/h 84% 0 mm WeatherDisplay:10.37 W/m2 FEW
16:55 -22.4 °C -23.6 °C 35187.3 hPa NE 6.4 km/h 23.8 km/h 84% 0 mm WeatherDisplay:10.37 W/m2 FEW
17:00 -22.4 °C -23.7 °C 35197.5 hPa ENE 8.2 km/h 15 km/h 84% 0 mm WeatherDisplay:10.37 W/m2 FEW
17:05 -22.4 °C -23.7 °C 35197.5 hPa NE 2.1 km/h 6 km/h 84% 0 mm WeatherDisplay:10.37 W/m2 FEW
17:10 -22.6 °C -23.8 °C 35197.5 hPa NE 3.7 km/h 3.7 km/h 84% 0 mm WeatherDisplay:10.37 W/m2 FEW
17:15 -22.6 °C -23.8 °C 35197.5 hPa ENE 4.7 km/h 9 km/h 84% 0 mm WeatherDisplay:10.37 W/m2 FEW
17:20 -22.7 °C -23.9 °C 35197.5 hPa NE 5.6 km/h 9 km/h 84% 0 mm WeatherDisplay:10.37 W/m2 FEW
17:25 -22.7 °C -23.9 °C 35197.5 hPa ENE 6.9 km/h 11.9 km/h 84% 0 mm WeatherDisplay:10.37 W/m2 FEW
17:30 -22.7 °C -23.9 °C 35197.5 hPa NE 1.8 km/h   84% 0 mm WeatherDisplay:10.37 W/m2 FEW
17:35 -22.7 °C -24 °C 35197.5 hPa ENE 4.3 km/h 9 km/h 84% 0 mm WeatherDisplay:10.37 W/m2 FEW
17:40 -22.8 °C -24 °C 35207.6 hPa NE 9.8 km/h 15 km/h 84% 0 mm WeatherDisplay:10.37 W/m2 FEW
17:45 -22.8 °C -24.1 °C 35207.6 hPa East 6.3 km/h 9 km/h 84% 0 mm WeatherDisplay:10.37 W/m2 FEW
17:50 -22.9 °C -24.1 °C 35207.6 hPa NE 4.7 km/h 9 km/h 84% 0 mm WeatherDisplay:10.37 W/m2 FEW
17:55 -22.9 °C -24.1 °C 35207.6 hPa NE 3.7 km/h 9 km/h 84% 0 mm WeatherDisplay:10.37 W/m2 FEW
18:00 -22.9 °C -24.2 °C 35207.6 hPa NE 10.1 km/h 23.8 km/h 84% 0 mm WeatherDisplay:10.37 W/m2 FEW
18:05 -22.9 °C -24.2 °C 35221.2 hPa NE 9 km/h 12.9 km/h 83% 0 mm WeatherDisplay:10.37 W/m2 FEW
18:10 -22.9 °C -24.2 °C 35221.2 hPa East 13.5 km/h 13.5 km/h 83% 0 mm WeatherDisplay:10.37 W/m2 FEW
18:15 -22.9 °C -24.3 °C 35221.2 hPa NE 3.9 km/h 12.9 km/h 82% 0 mm WeatherDisplay:10.37 W/m2 FEW
18:20 -22.9 °C -24.3 °C 35221.2 hPa NNE 3.9 km/h 26.9 km/h 82% 0 mm WeatherDisplay:10.37 W/m2 FEW
18:25 -22.9 °C -24.4 °C 35221.2 hPa NE 8.2 km/h 20.9 km/h 81% 0 mm WeatherDisplay:10.37 W/m2 FEW
18:30 -22.9 °C -24.6 °C 35221.2 hPa ENE 10.1 km/h 10.3 km/h 80% 0 mm WeatherDisplay:10.37 W/m2 FEW
18:35 -23 °C -24.6 °C 35221.2 hPa ENE 10.6 km/h 15 km/h 80% 0 mm WeatherDisplay:10.37 W/m2 FEW
18:40 -23 °C -24.6 °C 35221.2 hPa ENE 4.2 km/h 9 km/h 80% 0 mm WeatherDisplay:10.37 W/m2 FEW
18:45 -23.1 °C -24.7 °C 35231.3 hPa NE 5.5 km/h 11.9 km/h 80% 0 mm WeatherDisplay:10.37 W/m2 FEW
18:50 -23.2 °C -24.7 °C 35231.3 hPa NE 6.4 km/h 11.9 km/h 80% 0 mm WeatherDisplay:10.37 W/m2 FEW
18:55 -23.2 °C -24.8 °C 35231.3 hPa Calm   6 km/h 80% 0 mm WeatherDisplay:10.37 W/m2 FEW
19:00 -23.3 °C -24.8 °C 35231.3 hPa ENE 5.6 km/h 11.9 km/h 81% 0 mm WeatherDisplay:10.37 W/m2 FEW
19:05 -23.3 °C -24.8 °C 35231.3 hPa NE 9.7 km/h 15 km/h 81% 0 mm WeatherDisplay:10.37 W/m2 FEW
19:10 -23.4 °C -24.8 °C 35231.3 hPa NE 6 km/h 9 km/h 82% 0 mm WeatherDisplay:10.37 W/m2 FEW
19:15 -23.4 °C -24.8 °C 35231.3 hPa ENE 10.1 km/h 12.9 km/h 82% 0 mm WeatherDisplay:10.37 W/m2 FEW
19:20 -23.4 °C -24.8 °C 35231.3 hPa NE 8.5 km/h 11.9 km/h 82% 0 mm WeatherDisplay:10.37 W/m2 FEW
19:25 -23.4 °C -24.8 °C 35231.3 hPa NE 4.3 km/h 9 km/h 83% 0 mm WeatherDisplay:10.37 W/m2 FEW
19:30 -23.4 °C -24.8 °C 35244.9 hPa ENE 2.6 km/h 11.9 km/h 83% 0 mm WeatherDisplay:10.37 W/m2 FEW
19:35 -23.5 °C -24.8 °C 35231.3 hPa ENE 2.3 km/h 9 km/h 83% 0 mm WeatherDisplay:10.37 W/m2 FEW
19:40 -23.5 °C -24.7 °C 35244.9 hPa NE 7.6 km/h 9 km/h 84% 0 mm WeatherDisplay:10.37 W/m2 FEW
19:45 -23.5 °C -24.7 °C 35244.9 hPa ENE 1.8 km/h 15 km/h 84% 0 mm WeatherDisplay:10.37 W/m2 FEW
19:50 -23.5 °C -24.7 °C 35244.9 hPa ENE 6 km/h 9 km/h 84% 0 mm WeatherDisplay:10.37 W/m2 FEW
19:55 -23.6 °C -24.8 °C 35244.9 hPa East 10.3 km/h 20.9 km/h 84% 0 mm WeatherDisplay:10.37 W/m2 FEW
20:00 -23.6 °C -24.7 °C 35244.9 hPa ENE 2.1 km/h 9 km/h 85% 0 mm WeatherDisplay:10.37 W/m2 FEW
20:05 -23.6 °C -24.7 °C 35244.9 hPa ENE 2.9 km/h 9 km/h 85% 0 mm WeatherDisplay:10.37 W/m2 FEW
20:10 -23.6 °C -24.8 °C 35244.9 hPa ENE 1 km/h 7.7 km/h 85% 0 mm WeatherDisplay:10.37 W/m2 FEW
20:15 -23.7 °C -24.8 °C 35244.9 hPa NE 7.2 km/h 17.9 km/h 85% 0 mm WeatherDisplay:10.37 W/m2 FEW
20:20 -23.7 °C -24.8 °C 35244.9 hPa NE 6 km/h 11.9 km/h 86% 0 mm WeatherDisplay:10.37 W/m2 FEW
20:25 -23.7 °C -24.8 °C 35244.9 hPa East 9 km/h 17.9 km/h 86% 0 mm WeatherDisplay:10.37 W/m2 FEW
20:30 -23.7 °C -24.8 °C 35255 hPa ENE 9 km/h 15 km/h 86% 0 mm WeatherDisplay:10.37 W/m2 FEW
20:35 -23.8 °C -24.8 °C 35255 hPa NE 0.5 km/h 7.7 km/h 86% 0 mm WeatherDisplay:10.37 W/m2 FEW
20:40 -23.8 °C -24.9 °C 35255 hPa ENE 5.5 km/h 9 km/h 86% 0 mm WeatherDisplay:10.37 W/m2 FEW
20:45 -23.8 °C -24.9 °C 35255 hPa ENE 8.5 km/h 10.3 km/h 86% 0 mm WeatherDisplay:10.37 W/m2 FEW
20:50 -23.9 °C -24.9 °C 35255 hPa NE 5.5 km/h 6 km/h 86% 0 mm WeatherDisplay:10.37 W/m2 FEW
20:55 -23.9 °C -24.9 °C 35255 hPa NE 4.3 km/h 15 km/h 87% 0 mm WeatherDisplay:10.37 W/m2 FEW
21:00 -23.9 °C -24.9 °C 35255 hPa ENE 2.9 km/h 11.9 km/h 87% 0 mm WeatherDisplay:10.37 W/m2 FEW
21:05 -23.9 °C -24.9 °C 35255 hPa NE 2.1 km/h 9 km/h 87% 0 mm WeatherDisplay:10.37 W/m2 FEW
21:10 -23.9 °C -24.9 °C 35255 hPa East 3.9 km/h 18.2 km/h 87% 0 mm WeatherDisplay:10.37 W/m2 FEW
21:15 -24 °C -24.9 °C 35255 hPa NE 6.9 km/h 11.9 km/h 87% 0 mm WeatherDisplay:10.37 W/m2 FEW
21:20 -24 °C -24.9 °C 35265.2 hPa ENE 6 km/h 11.9 km/h 87% 0 mm WeatherDisplay:10.37 W/m2 FEW
21:25 -24 °C -24.9 °C 35265.2 hPa NE 5 km/h 9 km/h 87% 0 mm WeatherDisplay:10.37 W/m2 FEW
21:30 -24.1 °C -24.9 °C 35265.2 hPa East 5.1 km/h 9 km/h 88% 0 mm WeatherDisplay:10.37 W/m2 FEW
21:35 -24.1 °C -24.9 °C 35265.2 hPa East 7.6 km/h 15.6 km/h 88% 0 mm WeatherDisplay:10.37 W/m2 FEW
21:40 -24.1 °C -24.9 °C 35265.2 hPa NE 3.7 km/h 9 km/h 88% 0 mm WeatherDisplay:10.37 W/m2 FEW
21:45 -24.1 °C -25 °C 35265.2 hPa NNE 5.5 km/h 15 km/h 88% 0 mm WeatherDisplay:10.37 W/m2 FEW
21:50 -24.1 °C -25.1 °C 35265.2 hPa ENE 7.6 km/h 23.8 km/h 88% 0 mm WeatherDisplay:10.37 W/m2 FEW
21:55 -24.1 °C -25.1 °C 35265.2 hPa ENE 5.1 km/h 9 km/h 88% 0 mm WeatherDisplay:10.37 W/m2 FEW
22:00 -24.2 °C -25.1 °C 35265.2 hPa NE 8.2 km/h 23.8 km/h 88% 0 mm WeatherDisplay:10.37 W/m2 FEW
22:05 -24.2 °C -25.1 °C 35265.2 hPa NE 4.2 km/h 9 km/h 88% 0 mm WeatherDisplay:10.37 W/m2 FEW
22:10 -24.2 °C -25.1 °C 35265.2 hPa ENE 8.5 km/h 23.8 km/h 89% 0 mm WeatherDisplay:10.37 W/m2 FEW
22:15 -24.3 °C -25.1 °C 35265.2 hPa NNE 0.3 km/h 6 km/h 89% 0 mm WeatherDisplay:10.37 W/m2 FEW
22:20 -24.3 °C -25.1 °C 35265.2 hPa NE 7.6 km/h 9 km/h 89% 0 mm WeatherDisplay:10.37 W/m2 FEW
22:25 -24.3 °C -25.1 °C 35265.2 hPa NE 9.8 km/h 11.9 km/h 89% 0 mm WeatherDisplay:10.37 W/m2 FEW
22:30 -24.3 °C -25.1 °C 35278.7 hPa NE 5.1 km/h 15 km/h 89% 0 mm WeatherDisplay:10.37 W/m2 FEW
22:35 -24.3 °C -25.1 °C 35278.7 hPa ENE 0.8 km/h 11.9 km/h 89% 0 mm WeatherDisplay:10.37 W/m2 FEW
22:40 -24.3 °C -25.2 °C 35278.7 hPa ENE 8 km/h 10.3 km/h 89% 0 mm WeatherDisplay:10.37 W/m2 FEW
22:45 -24.4 °C -25.2 °C 35278.7 hPa Calm     89% 0 mm WeatherDisplay:10.37 W/m2 FEW
22:50 -24.4 °C -25.2 °C 35278.7 hPa NE 3.4 km/h 9 km/h 89% 0 mm WeatherDisplay:10.37 W/m2 FEW
22:55 -24.4 °C -25.2 °C 35278.7 hPa ENE 4.7 km/h 6 km/h 89% 0 mm WeatherDisplay:10.37 W/m2 FEW
23:00 -24.5 °C -25.3 °C 35278.7 hPa ENE 1.3 km/h 10.3 km/h 89% 0 mm WeatherDisplay:10.37 W/m2 FEW
23:05 -24.6 °C -25.3 °C 35278.7 hPa NE 3.7 km/h 7.7 km/h 89% 0 mm WeatherDisplay:10.37 W/m2 FEW
23:10 -24.6 °C -25.4 °C 35278.7 hPa ENE 5.1 km/h 9 km/h 89% 0 mm WeatherDisplay:10.37 W/m2 FEW
23:15 -24.6 °C -25.4 °C 35278.7 hPa ENE 4.7 km/h 9 km/h 89% 0 mm WeatherDisplay:10.37 W/m2 FEW
23:20 -24.6 °C -25.3 °C 35288.9 hPa ENE 6.3 km/h 9 km/h 90% 0 mm WeatherDisplay:10.37 W/m2 FEW
23:25 -24.7 °C -25.4 °C 35288.9 hPa NE 6.9 km/h 9 km/h 90% 0 mm WeatherDisplay:10.37 W/m2 FEW
23:30 -24.7 °C -25.4 °C 35288.9 hPa NE 5.6 km/h 9 km/h 90% 0 mm WeatherDisplay:10.37 W/m2 FEW
23:35 -24.7 °C -25.5 °C 35288.9 hPa ENE 6 km/h 9 km/h 89% 0 mm WeatherDisplay:10.37 W/m2 FEW
23:40 -24.7 °C -25.5 °C 35288.9 hPa NE 2.1 km/h 9 km/h 89% 0 mm WeatherDisplay:10.37 W/m2 FEW
23:45 -24.7 °C -25.4 °C 35288.9 hPa East 8 km/h 11.9 km/h 90% 0 mm WeatherDisplay:10.37 W/m2 FEW
23:50 -24.7 °C -25.4 °C 35288.9 hPa ENE 9.7 km/h 11.9 km/h 90% 0 mm WeatherDisplay:10.37 W/m2 FEW
23:55 -24.8 °C -25.4 °C 35288.9 hPa ENE 6.9 km/h 9 km/h 90% 0 mm WeatherDisplay:10.37 W/m2 FEW
Tuulensuunkaari, Veikkola, Suomi
Compliments of Weather Underground - 2.75 mb